createdAt,value
2022-10-02T00:01:35.726Z,100206.06
2022-10-02T00:04:07.264Z,100201.25
2022-10-02T00:06:42.963Z,100197.88
2022-10-02T00:09:18.542Z,100190.25
2022-10-02T00:11:53.854Z,100200.81
2022-10-02T00:14:25.687Z,100200.13
2022-10-02T00:16:56.879Z,100187.69
2022-10-02T00:19:26.828Z,100195.44
2022-10-02T00:22:21.388Z,100189.53
2022-10-02T00:24:56.207Z,100189.94
2022-10-02T00:27:40.308Z,100186.84
2022-10-02T00:30:13.143Z,100193.91
2022-10-02T00:32:48.753Z,100195.63
2022-10-02T00:35:46.027Z,100195.75
2022-10-02T00:38:25.932Z,100191.09
2022-10-02T00:41:17.526Z,100195.31
2022-10-02T00:43:58.941Z,100196.03
2022-10-02T00:46:40.121Z,100190.06
2022-10-02T00:49:24.617Z,100197.16
2022-10-02T00:52:03.143Z,100194.59
2022-10-02T00:55:04.600Z,100196.47
2022-10-02T00:57:49.811Z,100195.19
2022-10-02T01:00:20.867Z,100199.13
2022-10-02T01:03:22.159Z,100186.25
2022-10-02T01:05:51.176Z,100191.50
2022-10-02T01:08:20.460Z,100195.03
2022-10-02T01:10:50.408Z,100189.25
2022-10-02T01:13:19.140Z,100187.69
2022-10-02T01:15:53.597Z,100183.31
2022-10-02T01:18:23.080Z,100185.13
2022-10-02T01:20:53.756Z,100189.38
2022-10-02T01:23:32.371Z,100190.50
2022-10-02T01:26:03.073Z,100195.63
2022-10-02T01:28:31.892Z,100191.94
2022-10-02T01:31:07.753Z,100193.06
2022-10-02T01:33:38.626Z,100195.75
2022-10-02T01:36:07.641Z,100186.00
2022-10-02T01:38:37.090Z,100196.59
2022-10-02T01:41:07.893Z,100191.50
2022-10-02T01:43:39.450Z,100194.75
2022-10-02T01:46:22.479Z,100189.38
2022-10-02T01:49:02.238Z,100195.47
2022-10-02T01:52:00.768Z,100197.00
2022-10-02T01:54:42.749Z,100191.94
2022-10-02T01:57:24.641Z,100191.81
2022-10-02T02:00:06.316Z,100191.09
2022-10-02T02:02:50.155Z,100190.78
2022-10-02T02:05:28.706Z,100192.50
2022-10-02T02:08:07.614Z,100186.84
2022-10-02T02:10:46.670Z,100188.53
2022-10-02T02:13:21.650Z,100186.56
2022-10-02T02:15:58.406Z,100188.53
2022-10-02T02:18:33.709Z,100182.75
2022-10-02T02:21:08.329Z,100188.69
2022-10-02T02:23:40.635Z,100179.78
2022-10-02T02:26:13.317Z,100185.44
2022-10-02T02:28:50.118Z,100185.13
2022-10-02T02:31:23.594Z,100180.78
2022-10-02T02:33:57.323Z,100185.72
2022-10-02T02:36:30.886Z,100181.78
2022-10-02T02:39:04.901Z,100184.88
2022-10-02T02:41:40.150Z,100187.09
2022-10-02T02:44:14.381Z,100177.78
2022-10-02T02:47:06.933Z,100177.50
2022-10-02T02:49:49.494Z,100176.81
2022-10-02T02:52:21.527Z,100172.13
2022-10-02T02:54:55.278Z,100177.91
2022-10-02T02:57:30.090Z,100178.47
2022-10-02T03:00:02.410Z,100172.69
2022-10-02T03:02:31.175Z,100174.97
2022-10-02T03:05:00.019Z,100164.34
2022-10-02T03:07:29.078Z,100162.38
2022-10-02T03:10:09.988Z,100156.69
2022-10-02T03:12:58.362Z,100161.69
2022-10-02T03:15:34.896Z,100159.59
2022-10-02T03:18:20.460Z,100163.41
2022-10-02T03:20:58.762Z,100149.41
2022-10-02T03:23:31.740Z,100152.94
2022-10-02T03:26:05.522Z,100148.44
2022-10-02T03:28:54.924Z,100150.53
2022-10-02T03:31:29.526Z,100156.63
2022-10-02T03:34:00.669Z,100157.47
2022-10-02T03:36:32.424Z,100141.94
2022-10-02T03:41:53.524Z,100143.50
2022-10-02T03:44:22.540Z,100150.13
2022-10-02T03:46:52.906Z,100144.03
2022-10-02T03:49:21.804Z,100143.91
2022-10-02T03:51:50.758Z,100140.66
2022-10-02T03:54:22.476Z,100138.00
2022-10-02T03:56:56.690Z,100143.72
2022-10-02T03:59:40.261Z,100141.50
2022-10-02T04:02:20.804Z,100145.31
2022-10-02T04:04:54.883Z,100150.41
2022-10-02T04:07:28.728Z,100147.00
2022-10-02T04:10:09.102Z,100152.09
2022-10-02T04:12:42.083Z,100155.75
2022-10-02T04:15:18.609Z,100148.56
2022-10-02T04:17:58.756Z,100155.91
2022-10-02T04:20:34.069Z,100147.59
2022-10-02T04:23:10.644Z,100153.22
2022-10-02T04:25:45.910Z,100158.72
2022-10-02T04:28:18.300Z,100146.44
2022-10-02T04:30:47.087Z,100151.25
2022-10-02T04:33:20.464Z,100151.41
2022-10-02T04:35:59.843Z,100148.72
2022-10-02T04:38:56.185Z,100147.84
2022-10-02T04:41:41.106Z,100148.44
2022-10-02T04:44:21.483Z,100150.13
2022-10-02T04:47:13.127Z,100150.28
2022-10-02T04:50:00.067Z,100155.03
2022-10-02T04:52:47.408Z,100157.00
2022-10-02T04:55:43.441Z,100144.19
2022-10-02T04:58:52.725Z,100145.59
2022-10-02T05:01:33.247Z,100143.59
2022-10-02T05:04:22.642Z,100140.25
2022-10-02T05:07:12.445Z,100147.84
2022-10-02T05:09:49.888Z,100147.00
2022-10-02T05:12:35.304Z,100149.69
2022-10-02T05:15:24.769Z,100154.94
2022-10-02T05:18:08.143Z,100153.66
2022-10-02T05:21:01.208Z,100154.19
2022-10-02T05:23:46.551Z,100150.81
2022-10-02T05:26:43.410Z,100156.59
2022-10-02T05:29:32.803Z,100157.47
2022-10-02T05:32:22.286Z,100158.72
2022-10-02T05:35:08.090Z,100161.41
2022-10-02T05:37:53.945Z,100158.59
2022-10-02T05:40:31.945Z,100163.94
2022-10-02T05:43:07.789Z,100168.19
2022-10-02T05:45:39.566Z,100163.94
2022-10-02T05:48:15.870Z,100170.16
2022-10-02T05:50:51.026Z,100161.97
2022-10-02T05:53:32.984Z,100170.16
2022-10-02T05:56:06.950Z,100165.63
2022-10-02T05:58:40.201Z,100159.16
2022-10-02T06:01:13.613Z,100172.28
2022-10-02T06:03:48.105Z,100162.28
2022-10-02T06:06:19.742Z,100164.94
2022-10-02T06:08:52.184Z,100169.91
2022-10-02T06:11:29.706Z,100163.94
2022-10-02T06:14:02.286Z,100171.16
2022-10-02T06:16:37.837Z,100162.53
2022-10-02T06:19:13.053Z,100161.97
2022-10-02T06:21:48.338Z,100166.50
2022-10-02T06:24:24.774Z,100165.91
2022-10-02T06:27:04.113Z,100161.97
2022-10-02T06:29:41.424Z,100171.56
2022-10-02T06:32:19.561Z,100164.06
2022-10-02T06:34:48.503Z,100169.00
2022-10-02T06:37:43.221Z,100164.22
2022-10-02T06:40:32.068Z,100174.38
2022-10-02T06:43:07.088Z,100170.44
2022-10-02T06:45:46.561Z,100172.25
2022-10-02T06:48:26.582Z,100167.72
2022-10-02T06:51:05.307Z,100166.28
2022-10-02T06:54:02.445Z,100159.34
2022-10-02T06:56:46.253Z,100161.88
2022-10-02T06:59:31.554Z,100163.44
2022-10-02T07:02:06.923Z,100163.69
2022-10-02T07:04:52.734Z,100167.25
2022-10-02T07:07:42.932Z,100164.72
2022-10-02T07:10:30.317Z,100171.78
2022-10-02T07:13:19.269Z,100171.22
2022-10-02T07:16:08.683Z,100173.47
2022-10-02T07:18:58.152Z,100167.16
2022-10-02T07:21:40.067Z,100161.66
2022-10-02T07:24:27.391Z,100158.97
2022-10-02T07:27:04.669Z,100157.50
2022-10-02T07:29:50.723Z,100152.13
2022-10-02T07:32:49.133Z,100160.06
2022-10-02T07:35:38.972Z,100155.13
2022-10-02T07:38:21.870Z,100150.03
2022-10-02T07:41:01.520Z,100145.75
2022-10-02T07:43:52.186Z,100157.06
2022-10-02T07:46:29.465Z,100146.91
2022-10-02T07:49:22.289Z,100148.38
2022-10-02T07:51:59.164Z,100149.16
2022-10-02T07:54:41.608Z,100150.53
2022-10-02T07:57:26.170Z,100155.59
2022-10-02T07:59:59.447Z,100154.53
2022-10-02T08:02:36.093Z,100151.38
2022-10-02T08:05:14.167Z,100144.00
2022-10-02T08:07:43.272Z,100147.22
2022-10-02T08:10:16.787Z,100148.13
2022-10-02T08:12:51.931Z,100147.44
2022-10-02T08:15:23.967Z,100139.69
2022-10-02T08:17:58.786Z,100149.06
2022-10-02T08:20:42.547Z,100135.31
2022-10-02T08:23:21.686Z,100141.69
2022-10-02T08:25:59.642Z,100129.91
2022-10-02T08:28:36.040Z,100136.56
2022-10-02T08:31:10.731Z,100132.91
2022-10-02T08:33:40.282Z,100130.75
2022-10-02T08:36:56.425Z,100129.19
2022-10-02T08:39:46.860Z,100126.22
2022-10-02T08:42:37.599Z,100131.97
2022-10-02T08:45:49.730Z,100120.31
2022-10-02T08:48:58.604Z,100120.84
2022-10-02T08:51:53.101Z,100122.69
2022-10-02T08:54:57.250Z,100111.22
2022-10-02T08:57:52.480Z,100112.38
2022-10-02T09:00:26.965Z,100111.34
2022-10-02T09:03:20.740Z,100113.19
2022-10-02T09:06:43.324Z,100117.25
2022-10-02T09:09:50.102Z,100117.72
2022-10-02T09:12:59.221Z,100114.22
2022-10-02T09:15:45.150Z,100119.69
2022-10-02T09:18:19.804Z,100119.72
2022-10-02T09:21:14.922Z,100113.00
2022-10-02T09:24:32.539Z,100112.22
2022-10-02T09:28:02.263Z,100117.25
2022-10-02T09:30:59.219Z,100112.91
2022-10-02T09:34:15.070Z,100114.53
2022-10-02T09:37:13.962Z,100111.81
2022-10-02T09:40:11.968Z,100109.84
2022-10-02T09:43:11.262Z,100115.34
2022-10-02T09:46:20.208Z,100113.78
2022-10-02T09:49:21.546Z,100103.38
2022-10-02T09:52:01.405Z,100103.06
2022-10-02T09:55:09.840Z,100099.91
2022-10-02T09:58:25.330Z,100100.34
2022-10-02T10:01:27.895Z,100103.59
2022-10-02T10:04:47.861Z,100104.47
2022-10-02T10:08:05.509Z,100101.63
2022-10-02T10:11:01.609Z,100095.28
2022-10-02T10:14:23.742Z,100103.06
2022-10-02T10:17:21.001Z,100104.88
2022-10-02T10:20:35.000Z,100107.56
2022-10-02T10:23:15.720Z,100104.09
2022-10-02T10:26:16.490Z,100108.16
2022-10-02T10:29:00.369Z,100108.16
2022-10-02T10:32:05.621Z,100106.16
2022-10-02T10:35:05.529Z,100107.81
2022-10-02T10:38:12.729Z,100111.84
2022-10-02T10:41:11.367Z,100118.41
2022-10-02T10:44:12.149Z,100117.13
2022-10-02T10:47:18.415Z,100111.59
2022-10-02T10:50:16.605Z,100111.59
2022-10-02T10:53:28.490Z,100112.63
2022-10-02T10:56:33.698Z,100110.47
2022-10-02T10:59:42.709Z,100115.69
2022-10-02T11:02:45.565Z,100112.69
2022-10-02T11:05:38.462Z,100114.34
2022-10-02T11:08:28.525Z,100117.69
2022-10-02T11:11:08.044Z,100121.22
2022-10-02T11:13:58.009Z,100116.31
2022-10-02T11:17:10.850Z,100112.97
2022-10-02T11:20:04.663Z,100112.28
2022-10-02T11:22:54.623Z,100113.66
2022-10-02T11:25:42.863Z,100112.00
2022-10-02T11:28:32.391Z,100116.53
2022-10-02T11:31:19.201Z,100110.47
2022-10-02T11:34:38.329Z,100118.38
2022-10-02T11:37:24.549Z,100109.16
2022-10-02T11:40:15.802Z,100103.75
2022-10-02T11:43:13.961Z,100103.25
2022-10-02T11:46:04.206Z,100101.53
2022-10-02T11:49:01.223Z,100102.38
2022-10-02T11:51:47.888Z,100099.88
2022-10-02T11:54:41.407Z,100100.66
2022-10-02T11:57:23.064Z,100106.25
2022-10-02T12:00:09.460Z,100098.50
2022-10-02T12:02:50.935Z,100094.47
2022-10-02T12:05:36.904Z,100096.63
2022-10-02T12:08:17.850Z,100099.69
2022-10-02T12:10:56.886Z,100095.16
2022-10-02T12:13:50.226Z,100088.53
2022-10-02T12:16:32.635Z,100092.25
2022-10-02T12:19:18.086Z,100093.59
2022-10-02T12:22:16.165Z,100089.38
2022-10-02T12:25:17.179Z,100083.13
2022-10-02T12:27:59.893Z,100085.81
2022-10-02T12:30:35.406Z,100080.25
2022-10-02T12:33:23.223Z,100082.63
2022-10-02T12:36:24.548Z,100079.91
2022-10-02T12:39:00.238Z,100076.22
2022-10-02T12:41:44.213Z,100074.50
2022-10-02T12:44:29.701Z,100077.00
2022-10-02T12:47:18.658Z,100081.81
2022-10-02T12:50:03.072Z,100075.03
2022-10-02T12:53:06.700Z,100068.97
2022-10-02T12:56:01.706Z,100069.78
2022-10-02T12:58:42.698Z,100072.38
2022-10-02T13:02:10.683Z,100073.03
2022-10-02T13:05:44.622Z,100068.69
2022-10-02T13:08:40.128Z,100076.28
2022-10-02T13:11:20.328Z,100065.91
2022-10-02T13:14:07.585Z,100061.53
2022-10-02T13:16:58.419Z,100070.97
2022-10-02T13:19:35.062Z,100068.78
2022-10-02T13:22:13.970Z,100064.41
2022-10-02T13:25:01.266Z,100059.38
2022-10-02T13:27:39.230Z,100065.09
2022-10-02T13:30:14.968Z,100067.28
2022-10-02T13:33:06.186Z,100060.03
2022-10-02T13:35:46.148Z,100056.00
2022-10-02T13:38:47.227Z,100060.38
2022-10-02T13:41:30.184Z,100055.97
2022-10-02T13:44:09.067Z,100051.59
2022-10-02T13:46:54.552Z,100061.16
2022-10-02T13:49:38.251Z,100053.56
2022-10-02T13:52:19.125Z,100051.44
2022-10-02T13:55:02.662Z,100045.50
2022-10-02T13:57:48.378Z,100050.59
2022-10-02T14:00:25.366Z,100048.38
2022-10-02T14:03:06.851Z,100047.16
2022-10-02T14:05:43.604Z,100036.22
2022-10-02T14:08:29.884Z,100048.09
2022-10-02T14:11:10.499Z,100044.78
2022-10-02T14:14:03.962Z,100042.44
2022-10-02T14:16:51.272Z,100038.44
2022-10-02T14:19:57.505Z,100043.50
2022-10-02T14:22:36.989Z,100048.16
2022-10-02T14:25:28.243Z,100042.59
2022-10-02T14:28:30.638Z,100036.09
2022-10-02T14:31:33.068Z,100045.63
2022-10-02T14:34:22.603Z,100052.28
2022-10-02T14:37:02.702Z,100045.16
2022-10-02T14:39:36.043Z,100048.38
2022-10-02T14:42:21.137Z,100042.78
2022-10-02T14:45:21.951Z,100057.13
2022-10-02T14:48:10.930Z,100057.19
2022-10-02T14:50:55.729Z,100057.06
2022-10-02T14:53:44.263Z,100059.28
2022-10-02T14:56:45.658Z,100051.72
2022-10-02T14:59:23.041Z,100053.19
2022-10-02T15:02:03.971Z,100050.22
2022-10-02T15:04:49.305Z,100055.97
2022-10-02T15:07:22.435Z,100046.63
2022-10-02T15:10:08.813Z,100052.97
2022-10-02T15:12:50.352Z,100050.03
2022-10-02T15:15:26.814Z,100049.66
2022-10-02T15:18:21.235Z,100052.72
2022-10-02T15:20:59.683Z,100043.00
2022-10-02T15:23:46.127Z,100048.94
2022-10-02T15:26:50.455Z,100052.84
2022-10-02T15:29:31.256Z,100048.09
2022-10-02T15:32:48.534Z,100049.00
2022-10-02T15:35:28.963Z,100054.91
2022-10-02T15:38:22.231Z,100051.06
2022-10-02T15:41:05.910Z,100055.84
2022-10-02T15:43:49.072Z,100050.41
2022-10-02T15:46:26.114Z,100058.81
2022-10-02T15:49:15.132Z,100057.91
2022-10-02T15:51:58.157Z,100055.66
2022-10-02T15:54:39.734Z,100053.28
2022-10-02T15:57:28.454Z,100057.38
2022-10-02T16:00:11.336Z,100056.50
2022-10-02T16:03:06.647Z,100058.50
2022-10-02T16:05:54.446Z,100060.47
2022-10-02T16:08:54.283Z,100053.66
2022-10-02T16:12:25.681Z,100059.69
2022-10-02T16:15:22.562Z,100062.22
2022-10-02T16:18:24.145Z,100054.56
2022-10-02T16:21:02.351Z,100056.06
2022-10-02T16:24:21.573Z,100048.97
2022-10-02T16:27:30.762Z,100048.09
2022-10-02T16:30:13.437Z,100042.75
2022-10-02T16:33:04.736Z,100040.22
2022-10-02T16:35:47.791Z,100041.09
2022-10-02T16:38:23.742Z,100043.38
2022-10-02T16:40:58.162Z,100039.41
2022-10-02T16:43:49.585Z,100038.44
2022-10-02T16:46:25.921Z,100047.03
2022-10-02T16:49:00.638Z,100047.00
2022-10-02T16:51:40.663Z,100053.09
2022-10-02T16:54:19.541Z,100055.50
2022-10-02T16:56:55.264Z,100050.31
2022-10-02T16:59:28.705Z,100050.44
2022-10-02T17:02:17.538Z,100058.63
2022-10-02T17:04:58.760Z,100050.44
2022-10-02T17:07:42.823Z,100057.34
2022-10-02T17:10:22.836Z,100060.59
2022-10-02T17:12:57.942Z,100059.16
2022-10-02T17:15:35.223Z,100065.66
2022-10-02T17:18:28.165Z,100056.72
2022-10-02T17:21:02.325Z,100055.50
2022-10-02T17:23:39.832Z,100053.03
2022-10-02T17:26:15.878Z,100061.16
2022-10-02T17:28:49.817Z,100061.09
2022-10-02T17:31:35.931Z,100058.25
2022-10-02T17:34:20.380Z,100055.69
2022-10-02T17:36:57.798Z,100059.09
2022-10-02T17:40:06.574Z,100060.06
2022-10-02T17:42:52.203Z,100056.94
2022-10-02T17:45:38.414Z,100067.72
2022-10-02T17:48:24.558Z,100071.81
2022-10-02T17:51:38.611Z,100068.88
2022-10-02T17:54:37.025Z,100073.59
2022-10-02T17:57:24.321Z,100069.41
2022-10-02T18:00:15.719Z,100076.25
2022-10-02T18:02:56.517Z,100082.41
2022-10-02T18:05:34.162Z,100076.53
2022-10-02T18:08:21.677Z,100076.53
2022-10-02T18:11:04.838Z,100085.09
2022-10-02T18:13:47.459Z,100081.25
2022-10-02T18:16:30.244Z,100075.56
2022-10-02T18:19:16.558Z,100083.22
2022-10-02T18:21:52.498Z,100084.69
2022-10-02T18:24:43.199Z,100094.81
2022-10-02T18:27:45.457Z,100092.03
2022-10-02T18:30:20.620Z,100098.59
2022-10-02T18:33:27.039Z,100092.28
2022-10-02T18:36:28.760Z,100095.44
2022-10-02T18:39:03.438Z,100093.25
2022-10-02T18:41:53.780Z,100089.94
2022-10-02T18:44:51.139Z,100097.97
2022-10-02T18:47:34.335Z,100096.16
2022-10-02T18:50:20.337Z,100089.88
2022-10-02T18:53:03.403Z,100091.09
2022-10-02T18:56:02.818Z,100089.78
2022-10-02T18:58:48.522Z,100086.41
2022-10-02T19:01:42.705Z,100081.81
2022-10-02T19:04:37.171Z,100087.53
2022-10-02T19:07:16.379Z,100082.28
2022-10-02T19:09:46.920Z,100088.84
2022-10-02T19:12:18.862Z,100089.59
2022-10-02T19:14:50.642Z,100089.72
2022-10-02T19:17:26.186Z,100090.09
2022-10-02T19:19:56.044Z,100092.16
2022-10-02T19:22:28.459Z,100086.81
2022-10-02T19:25:00.600Z,100078.16
2022-10-02T19:27:34.569Z,100086.47
2022-10-02T19:30:08.063Z,100081.78
2022-10-02T19:32:41.522Z,100086.25
2022-10-02T19:35:19.121Z,100084.16
2022-10-02T19:37:56.059Z,100079.69
2022-10-02T19:40:27.720Z,100078.56
2022-10-02T19:43:02.977Z,100078.66
2022-10-02T19:45:34.976Z,100079.03
2022-10-02T19:48:08.129Z,100078.81
2022-10-02T19:50:42.387Z,100078.88
2022-10-02T19:53:23.708Z,100071.75
2022-10-02T19:55:57.385Z,100074.91
2022-10-02T19:58:34.659Z,100071.94
2022-10-02T20:01:07.688Z,100070.00
2022-10-02T20:03:38.198Z,100080.06
2022-10-02T20:06:22.518Z,100077.88
2022-10-02T20:08:57.019Z,100070.03
2022-10-02T20:11:35.882Z,100069.56
2022-10-02T20:14:09.600Z,100068.19
2022-10-02T20:16:57.746Z,100071.97
2022-10-02T20:19:28.665Z,100068.34
2022-10-02T20:21:59.759Z,100065.44
2022-10-02T20:24:33.059Z,100064.22
2022-10-02T20:27:06.420Z,100066.63
2022-10-02T20:29:44.720Z,100059.72
2022-10-02T20:32:23.400Z,100069.06
2022-10-02T20:34:56.699Z,100064.56
2022-10-02T20:37:30.861Z,100064.69
2022-10-02T20:40:07.405Z,100064.41
2022-10-02T20:42:44.521Z,100062.72
2022-10-02T20:45:15.240Z,100060.41
2022-10-02T20:49:07.091Z,100056.41
2022-10-02T20:52:17.567Z,100057.31
2022-10-02T20:54:55.706Z,100061.16
2022-10-02T20:58:01.945Z,100057.38
2022-10-02T21:00:40.364Z,100063.19
2022-10-02T21:03:24.504Z,100056.75
2022-10-02T21:09:13.845Z,100051.94
2022-10-02T21:12:08.087Z,100059.06
2022-10-02T21:15:17.968Z,100054.97
2022-10-02T21:18:14.946Z,100057.19
2022-10-02T21:21:36.270Z,100062.66
2022-10-02T21:24:53.303Z,100051.22
2022-10-02T21:27:46.529Z,100048.19
2022-10-02T21:30:16.746Z,100051.31
2022-10-02T21:32:59.683Z,100050.94
2022-10-02T21:35:50.943Z,100054.00
2022-10-02T21:38:37.785Z,100048.75
2022-10-02T21:41:48.779Z,100051.84
2022-10-02T21:44:55.037Z,100056.78
2022-10-02T21:47:55.301Z,100051.06
2022-10-02T21:51:02.916Z,100056.41
2022-10-02T21:53:52.276Z,100044.78
2022-10-02T21:57:02.699Z,100039.34
2022-10-02T22:00:08.842Z,100035.13
2022-10-02T22:03:18.619Z,100031.34
2022-10-02T22:06:36.700Z,100037.94
2022-10-02T22:09:33.921Z,100029.44
2022-10-02T22:12:18.039Z,100031.72
2022-10-02T22:14:51.642Z,100029.94
2022-10-02T22:17:31.588Z,100033.72
2022-10-02T22:20:19.940Z,100027.66
2022-10-02T22:23:07.970Z,100029.47
2022-10-02T22:25:51.724Z,100029.75
2022-10-02T22:28:39.727Z,100028.16
2022-10-02T22:31:24.198Z,100014.44
2022-10-02T22:34:04.371Z,100025.13
2022-10-02T22:37:23.637Z,100016.97
2022-10-02T22:40:03.669Z,100024.03
2022-10-02T22:42:40.435Z,100027.72
2022-10-02T22:45:19.136Z,100032.56
2022-10-02T22:47:56.557Z,100031.13
2022-10-02T22:50:31.387Z,100025.91
2022-10-02T22:53:08.242Z,100026.97
2022-10-02T22:55:47.019Z,100020.91
2022-10-02T22:58:20.400Z,100018.25
2022-10-02T23:00:58.888Z,100024.94
2022-10-02T23:03:34.282Z,100024.31
2022-10-02T23:06:06.346Z,100018.50
2022-10-02T23:08:40.244Z,100020.94
2022-10-02T23:11:16.996Z,100029.44
2022-10-02T23:13:51.004Z,100026.66
2022-10-02T23:16:26.818Z,100020.72
2022-10-02T23:19:02.357Z,100023.63
2022-10-02T23:21:45.949Z,100015.75
2022-10-02T23:24:24.066Z,100006.63
2022-10-02T23:27:04.917Z,100012.75
2022-10-02T23:29:45.056Z,100008.09
2022-10-02T23:32:24.516Z,99999.41
2022-10-02T23:35:01.270Z,99996.94
2022-10-02T23:37:39.167Z,99997.69
2022-10-02T23:40:19.923Z,99996.47
2022-10-02T23:42:56.073Z,99996.00
2022-10-02T23:45:29.747Z,99999.63
2022-10-02T23:48:01.544Z,100003.03
2022-10-02T23:50:39.766Z,99996.84
2022-10-02T23:54:05.130Z,100001.19
2022-10-02T23:56:47.531Z,99998.88
2022-10-02T23:59:50.336Z,99988.19
